• Join FlightAware (Why Join?)
  • Login
  • US Flag 
05:30PM EDT


 

Airport Tracker/Info


-or-


 

Live Flight TrackerFlight Track Log ✈ N700ZF ✈ 02-Oct-2013 ✈ KMDW - KMRT

Flight Track Log - Related Links

Times and Time Zones

All times are in EDT time to prevent confusion due to time zone crossing. See the N700ZF flight status page for this flight to view local times or setup timezone preferences in your user account.

Time Position Orientation Groundspeed Altitude Reporting Facility
EDT Latitude Longitude Course Direction KTS MPH feet Rate Location/Type
04:32PM 41.8333 -87.5667 114° Southeast 173 199 2,000  Level Chicago TRACON
04:33PM 41.8333 -87.5000 90° East 171 197 3,100 1,020 Climbing Chicago TRACON
04:35PM 41.8236 -87.4294 100° East 172 198 4,500 1,140 Climbing Chicago Center
04:36PM 41.7928 -87.3594 121° Southeast 179 206 5,900 1,140 Climbing Chicago Center
04:37PM 41.7706 -87.2978 116° Southeast 184 212 6,900 1,020 Climbing Chicago Center
04:38PM 41.6926 -87.4690 114° Southeast  Level Estimated
04:38PM 41.7486 -87.2328 114° Southeast 189 217 8,100  Level Chicago Center
04:39PM 41.7253 -87.1689 116° Southeast 191 220 9,200 1,020 Climbing Chicago Center
04:40PM 41.7022 -87.1044 116° Southeast 192 221 10,300 960 Climbing Chicago Center
04:41PM 41.6775 -87.0403 117° Southeast 193 222 11,200 540 Climbing Chicago Center
04:42PM 41.6444 -86.9533 117° Southeast 210 242 11,500 720 Climbing Chicago Center
04:43PM 41.6169 -86.8797 117° Southeast 220 253 12,800 1,200 Climbing Chicago Center
04:44PM 41.5953 -86.8136 114° Southeast 204 235 14,100 1,260 Climbing Chicago Center
04:45PM 41.5733 -86.7514 115° Southeast 192 221 15,500 1,200 Climbing Chicago Center
04:46PM 41.5508 -86.6892 116° Southeast 182 209 16,700 960 Climbing Chicago Center
04:47PM 41.5250 -86.6303 120° Southeast 182 209 17,500 360 Climbing Chicago Center
04:48PM 41.4928 -86.5592 121° Southeast 212 244 17,500  Level Chicago Center
04:49PM 41.4508 -86.4575 119° Southeast 256 295 17,500 -60 Level Chicago Center
04:50PM 41.4194 -86.3661 115° Southeast 268 308 17,400 -60 Descending Chicago Center
04:51PM 41.3878 -86.2744 115° Southeast 272 313 17,400  Level Chicago Center
04:52PM 41.3553 -86.1817 115° Southeast 276 318 17,500  Climbing Chicago Center
04:53PM 41.3194 -86.0911 118° Southeast 277 319 17,500  Level Chicago Center
04:54PM 41.2769 -85.9833 118° Southeast 274 315 17,500 -60 Level Chicago Center
04:55PM 41.2425 -85.8939 117° Southeast 273 314 17,400  Descending Chicago Center
04:57PM 41.2075 -85.8033 117° Southeast 276 318 17,500  Climbing Chicago Center
04:58PM 41.1728 -85.7125 117° Southeast 277 319 17,500 -60 Level Chicago Center
04:59PM 41.1394 -85.6242 117° Southeast 270 311 17,400  Descending Chicago Center
05:00PM 41.0981 -85.5197 118° Southeast 268 308 17,500  Climbing Chicago Center
05:01PM 41.0628 -85.4331 118° Southeast 268 308 17,500  Level Chicago Center
05:02PM 41.0300 -85.3461 117° Southeast 265 305 17,500 -60 Level Chicago Center
05:03PM 40.9958 -85.2553 116° Southeast 273 314 17,400 -60 Descending Chicago Center
05:04PM 40.9622 -85.1681 117° Southeast 271 312 17,400  Level Chicago Center
05:05PM 40.9214 -85.0647 118° Southeast 267 307 17,400  Level Chicago Center
05:06PM 40.8875 -84.9789 118° Southeast 266 306 17,400  Level Chicago Center
05:07PM 40.8531 -84.8933 118° Southeast 266 306 17,400  Level Chicago Center
05:08PM 40.8194 -84.8072 117° Southeast 265 305 17,400  Level Chicago Center
05:09PM 40.7844 -84.7225 119° Southeast 264 304 17,500  Climbing Chicago Center
05:10PM 40.7492 -84.6361 118° Southeast 267 307 17,500 -540 Level Chicago Center
05:11PM 40.7053 -84.5294 118° Southeast 274 315 16,500 -900 Descending Chicago Center
05:12PM 40.6658 -84.4356 119° Southeast 288 331 15,700 -960 Descending Chicago Center
05:13PM 40.6344 -84.3375 113° Southeast 292 336 14,600 -1,320 Descending Chicago Center
05:14PM 40.5967 -84.2444 118° Southeast 290 334 13,000 -1,320 Descending Chicago Center
05:15PM 40.5583 -84.1519 119° Southeast 291 335 11,900 -1,440 Descending Chicago Center
05:16PM 40.5197 -84.0472 116° Southeast 271 312 10,100 -1,560 Descending Chicago Center
05:17PM 40.4861 -83.9575 116° Southeast 272 313 8,700 -1,440 Descending Chicago Center
05:18PM 40.4564 -83.8578 111° Southeast 270 311 7,200 -1,440 Descending Chicago Center
05:20PM 40.3999 -83.7943 128° Southeast  Level FlightAware Approximate
05:27PM 40.2195 -83.3556 123° Southeast  Level FlightAware Approximate
05:28PM 40.2167 -83.3500 123° Southeast  Level FlightAware Approximate
05:29PM 40.2247 -83.3516 123° Southeast  Level Estimated